createdAt,value
2019-03-19T00:00:01.078Z,983.07
2019-03-19T00:05:01.378Z,982.94
2019-03-19T00:10:01.078Z,982.87
2019-03-19T00:15:01.065Z,982.88
2019-03-19T00:20:01.424Z,982.77
2019-03-19T00:25:01.102Z,982.77
2019-03-19T00:30:01.438Z,982.79
2019-03-19T00:35:01.072Z,982.69
2019-03-19T00:40:01.458Z,982.79
2019-03-19T00:45:01.074Z,982.72
2019-03-19T00:50:01.451Z,982.68
2019-03-19T00:55:01.097Z,982.81
2019-03-19T01:00:01.111Z,982.78
2019-03-19T01:05:01.096Z,982.79
2019-03-19T01:10:01.151Z,982.76
2019-03-19T01:15:01.113Z,982.72
2019-03-19T01:20:01.105Z,982.75
2019-03-19T01:25:01.107Z,982.68
2019-03-19T01:30:19.267Z,982.58
2019-03-19T01:35:01.064Z,982.54
2019-03-19T01:40:01.104Z,982.49
2019-03-19T01:45:01.472Z,982.50
2019-03-19T01:50:01.129Z,982.47
2019-03-19T01:55:01.110Z,982.53
2019-03-19T02:00:01.448Z,982.59
2019-03-19T02:05:01.100Z,982.56
2019-03-19T02:10:01.515Z,982.61
2019-03-19T02:15:01.496Z,982.70
2019-03-19T02:20:01.084Z,982.71
2019-03-19T02:25:01.085Z,982.79
2019-03-19T02:30:01.098Z,982.75
2019-03-19T02:35:01.095Z,982.74
2019-03-19T02:40:01.073Z,982.78
2019-03-19T02:45:01.108Z,982.70
2019-03-19T02:50:01.096Z,982.82
2019-03-19T02:55:01.076Z,982.86
2019-03-19T03:00:01.125Z,982.83
2019-03-19T03:05:01.121Z,982.88
2019-03-19T03:10:01.096Z,982.86
2019-03-19T03:15:01.109Z,982.87
2019-03-19T03:20:01.528Z,982.80
2019-03-19T03:25:01.092Z,982.89
2019-03-19T03:30:01.365Z,982.90
2019-03-19T03:35:01.657Z,983.08
2019-03-19T03:40:01.055Z,983.07
2019-03-19T03:45:01.093Z,983.11
2019-03-19T03:50:01.478Z,983.06
2019-03-19T03:55:01.095Z,983.12
2019-03-19T04:00:01.132Z,983.03
2019-03-19T04:05:01.591Z,982.99
2019-03-19T04:10:01.109Z,982.92
2019-03-19T04:15:01.104Z,982.87
2019-03-19T04:20:01.482Z,982.86
2019-03-19T04:25:01.099Z,982.94
2019-03-19T04:30:01.085Z,982.86
2019-03-19T04:35:01.103Z,982.96
2019-03-19T04:40:01.097Z,983.05
2019-03-19T04:45:01.085Z,982.99
2019-03-19T04:50:01.435Z,983.11
2019-03-19T04:55:01.100Z,983.24
2019-03-19T05:00:01.118Z,983.41
2019-03-19T05:05:10.365Z,983.46
2019-03-19T05:10:01.094Z,983.58
2019-03-19T05:15:01.173Z,983.65
2019-03-19T05:20:01.549Z,983.64
2019-03-19T05:25:01.231Z,983.62
2019-03-19T05:30:01.408Z,983.69
2019-03-19T05:35:01.197Z,983.71
2019-03-19T05:40:01.103Z,983.82
2019-03-19T05:45:01.354Z,983.88
2019-03-19T05:50:01.557Z,983.90
2019-03-19T05:55:01.084Z,983.97
2019-03-19T06:00:01.495Z,984.03
2019-03-19T06:05:01.086Z,984.14
2019-03-19T06:10:01.119Z,984.33
2019-03-19T06:15:01.106Z,984.30
2019-03-19T06:20:01.576Z,984.28
2019-03-19T06:25:01.107Z,984.36
2019-03-19T06:30:01.132Z,984.33
2019-03-19T06:35:01.704Z,984.44
2019-03-19T06:40:01.092Z,984.40
2019-03-19T06:45:01.098Z,984.42
2019-03-19T06:50:01.945Z,984.50
2019-03-19T06:55:01.097Z,984.53
2019-03-19T07:00:01.606Z,984.58
2019-03-19T07:05:01.458Z,984.60
2019-03-19T07:10:01.064Z,984.75
2019-03-19T07:15:01.107Z,984.85
2019-03-19T07:20:01.116Z,984.88
2019-03-19T07:25:01.598Z,984.97
2019-03-19T07:30:01.083Z,984.93
2019-03-19T07:35:01.070Z,984.97
2019-03-19T07:40:01.078Z,985.01
2019-03-19T07:45:01.091Z,985.04
2019-03-19T07:50:01.104Z,985.09
2019-03-19T07:55:01.097Z,985.08
2019-03-19T08:00:01.127Z,985.03
2019-03-19T08:05:01.396Z,985.12
2019-03-19T08:10:01.135Z,985.07
2019-03-19T08:15:01.466Z,985.16
2019-03-19T08:20:01.086Z,985.12
2019-03-19T08:25:01.072Z,985.18
2019-03-19T08:30:01.114Z,985.18
2019-03-19T08:35:01.086Z,985.13
2019-03-19T08:40:01.108Z,985.16
2019-03-19T08:45:01.096Z,985.19
2019-03-19T08:50:14.654Z,985.24
2019-03-19T08:55:01.101Z,985.27
2019-03-19T09:00:01.134Z,985.23
2019-03-19T09:05:03.096Z,985.31
2019-03-19T09:10:01.106Z,985.35
2019-03-19T09:15:01.407Z,985.38
2019-03-19T09:20:01.110Z,985.38
2019-03-19T09:25:01.124Z,985.33
2019-03-19T09:30:01.483Z,985.40
2019-03-19T09:35:01.551Z,985.50
2019-03-19T09:40:01.143Z,985.50
2019-03-19T09:45:01.073Z,985.48
2019-03-19T09:50:01.062Z,985.39
2019-03-19T09:55:01.094Z,985.39
2019-03-19T10:00:01.114Z,985.40
2019-03-19T10:05:01.156Z,985.37
2019-03-19T10:10:01.554Z,985.43
2019-03-19T10:15:01.548Z,985.47
2019-03-19T10:20:01.117Z,985.43
2019-03-19T10:25:01.152Z,985.41
2019-03-19T10:30:01.094Z,985.45
2019-03-19T10:35:01.077Z,985.42
2019-03-19T10:40:02.153Z,985.44
2019-03-19T10:45:01.142Z,985.43
2019-03-19T10:50:01.119Z,985.43
2019-03-19T10:55:02.721Z,985.45
2019-03-19T11:00:01.131Z,985.43
2019-03-19T11:05:01.146Z,985.41
2019-03-19T11:10:01.103Z,985.31
2019-03-19T11:15:01.099Z,985.31
2019-03-19T11:20:01.407Z,985.28
2019-03-19T11:25:01.136Z,985.26
2019-03-19T11:30:01.238Z,985.28
2019-03-19T11:35:01.059Z,985.22
2019-03-19T11:40:01.119Z,985.21
2019-03-19T11:45:01.121Z,985.18
2019-03-19T11:50:01.161Z,985.26
2019-03-19T11:55:01.138Z,985.24
2019-03-19T12:00:10.815Z,985.24
2019-03-19T12:05:01.085Z,985.38
2019-03-19T12:10:01.122Z,985.42
2019-03-19T12:15:01.087Z,985.39
2019-03-19T12:20:01.092Z,985.34
2019-03-19T12:25:01.129Z,985.29
2019-03-19T12:30:01.167Z,985.26
2019-03-19T12:35:01.857Z,985.25
2019-03-19T12:40:01.149Z,985.19
2019-03-19T12:45:01.135Z,985.23
2019-03-19T12:50:01.123Z,985.15
2019-03-19T12:55:01.102Z,985.11
2019-03-19T13:00:01.310Z,985.10
2019-03-19T13:05:01.098Z,985.06
2019-03-19T13:10:01.341Z,985.05
2019-03-19T13:15:01.091Z,984.99
2019-03-19T13:25:01.097Z,985.10
2019-03-19T13:45:01.092Z,985.23
2019-03-19T14:10:01.152Z,985.34
2019-03-19T14:25:01.084Z,985.30
2019-03-19T14:35:01.102Z,985.48
2019-03-19T14:55:01.109Z,985.68
2019-03-19T15:05:01.056Z,985.65
2019-03-19T15:20:01.498Z,985.61
2019-03-19T15:50:01.080Z,986.06
2019-03-19T17:30:01.096Z,987.34
2019-03-19T18:40:01.031Z,988.46
2019-03-19T21:35:01.100Z,989.72
